sensor_id;sensor_type;location;lat;lon;timestamp;pressure;altitude;pressure_sealevel;temperature;humidity
77013;BME280;67260;53.130;17.982;2023-04-01T00:01:49;99153.45;;;9.89;83.61
77013;BME280;67260;53.130;17.982;2023-04-01T00:04:15;99149.83;;;9.86;83.69
77013;BME280;67260;53.130;17.982;2023-04-01T00:06:41;99153.56;;;9.83;83.78
77013;BME280;67260;53.130;17.982;2023-04-01T00:09:07;99152.33;;;9.82;84.06
77013;BME280;67260;53.130;17.982;2023-04-01T00:11:33;99151.11;;;9.80;83.93
77013;BME280;67260;53.130;17.982;2023-04-01T00:14:00;99150.41;;;9.79;84.15
77013;BME280;67260;53.130;17.982;2023-04-01T00:16:26;99148.77;;;9.79;84.49
77013;BME280;67260;53.130;17.982;2023-04-01T00:18:53;99148.69;;;9.84;84.40
77013;BME280;67260;53.130;17.982;2023-04-01T00:21:20;99148.52;;;9.90;84.25
77013;BME280;67260;53.130;17.982;2023-04-01T00:23:49;99145.19;;;9.88;84.10
77013;BME280;67260;53.130;17.982;2023-04-01T00:26:15;99144.67;;;9.81;84.02
77013;BME280;67260;53.130;17.982;2023-04-01T00:28:45;99146.26;;;9.78;84.22
77013;BME280;67260;53.130;17.982;2023-04-01T00:31:12;99147.05;;;9.78;84.28
77013;BME280;67260;53.130;17.982;2023-04-01T00:33:39;99142.96;;;9.78;84.23
77013;BME280;67260;53.130;17.982;2023-04-01T00:36:15;99141.98;;;9.76;84.43
77013;BME280;67260;53.130;17.982;2023-04-01T00:38:43;99141.38;;;9.76;84.40
77013;BME280;67260;53.130;17.982;2023-04-01T00:41:09;99141.34;;;9.73;84.53
77013;BME280;67260;53.130;17.982;2023-04-01T00:43:42;99142.35;;;9.73;84.59
77013;BME280;67260;53.130;17.982;2023-04-01T00:46:09;99141.76;;;9.75;84.64
77013;BME280;67260;53.130;17.982;2023-04-01T00:48:38;99141.21;;;9.78;84.48
77013;BME280;67260;53.130;17.982;2023-04-01T00:51:25;99138.40;;;9.77;84.41
77013;BME280;67260;53.130;17.982;2023-04-01T00:53:55;99141.13;;;9.76;84.42
77013;BME280;67260;53.130;17.982;2023-04-01T00:56:26;99138.48;;;9.76;84.45
77013;BME280;67260;53.130;17.982;2023-04-01T00:58:59;99139.55;;;9.77;84.43
77013;BME280;67260;53.130;17.982;2023-04-01T01:01:28;99138.14;;;9.78;84.64
77013;BME280;67260;53.130;17.982;2023-04-01T01:03:55;99136.01;;;9.80;84.58
77013;BME280;67260;53.130;17.982;2023-04-01T01:09:10;99130.46;;;9.82;84.45
77013;BME280;67260;53.130;17.982;2023-04-01T01:17:28;99126.77;;;9.74;84.71
77013;BME280;67260;53.130;17.982;2023-04-01T01:20:25;99126.73;;;9.68;84.64
77013;BME280;67260;53.130;17.982;2023-04-01T01:23:23;99124.77;;;9.62;84.96
77013;BME280;67260;53.130;17.982;2023-04-01T01:32:12;99131.90;;;9.61;85.07
77013;BME280;67260;53.130;17.982;2023-04-01T01:37:29;99130.13;;;9.53;85.06
77013;BME280;67260;53.130;17.982;2023-04-01T01:40:03;99133.98;;;9.46;84.95
77013;BME280;67260;53.130;17.982;2023-04-01T01:42:37;99136.02;;;9.41;85.22
77013;BME280;67260;53.130;17.982;2023-04-01T01:45:06;99136.41;;;9.36;85.34
77013;BME280;67260;53.130;17.982;2023-04-01T01:47:34;99134.89;;;9.30;85.45
77013;BME280;67260;53.130;17.982;2023-04-01T01:50:03;99133.98;;;9.27;85.57
77013;BME280;67260;53.130;17.982;2023-04-01T01:52:31;99136.55;;;9.26;85.43
77013;BME280;67260;53.130;17.982;2023-04-01T01:54:58;99130.53;;;9.24;85.30
77013;BME280;67260;53.130;17.982;2023-04-01T01:57:31;99132.11;;;9.21;85.22
77013;BME280;67260;53.130;17.982;2023-04-01T02:00:09;99132.15;;;9.17;85.46
77013;BME280;67260;53.130;17.982;2023-04-01T02:02:46;99133.57;;;9.14;85.25
77013;BME280;67260;53.130;17.982;2023-04-01T02:05:21;99133.77;;;9.10;85.35
77013;BME280;67260;53.130;17.982;2023-04-01T02:07:59;99134.84;;;9.05;85.68
77013;BME280;67260;53.130;17.982;2023-04-01T02:10:28;99133.25;;;9.00;85.81
77013;BME280;67260;53.130;17.982;2023-04-01T02:13:00;99137.52;;;8.96;85.76
77013;BME280;67260;53.130;17.982;2023-04-01T02:15:33;99140.15;;;8.95;85.97
77013;BME280;67260;53.130;17.982;2023-04-01T02:18:04;99135.91;;;8.93;85.73
77013;BME280;67260;53.130;17.982;2023-04-01T02:20:31;99137.28;;;8.90;86.02
77013;BME280;67260;53.130;17.982;2023-04-01T02:22:57;99135.60;;;8.88;86.02
77013;BME280;67260;53.130;17.982;2023-04-01T02:25:33;99136.23;;;8.85;85.83
77013;BME280;67260;53.130;17.982;2023-04-01T02:28:04;99138.13;;;8.84;86.07
77013;BME280;67260;53.130;17.982;2023-04-01T02:30:35;99136.84;;;8.83;86.08
77013;BME280;67260;53.130;17.982;2023-04-01T02:33:03;99138.05;;;8.83;85.95
77013;BME280;67260;53.130;17.982;2023-04-01T02:35:32;99140.84;;;8.85;85.95
77013;BME280;67260;53.130;17.982;2023-04-01T02:37:59;99143.40;;;8.83;85.94
77013;BME280;67260;53.130;17.982;2023-04-01T02:40:26;99144.09;;;8.83;85.83
77013;BME280;67260;53.130;17.982;2023-04-01T02:42:52;99150.49;;;8.83;85.90
77013;BME280;67260;53.130;17.982;2023-04-01T02:45:18;99149.37;;;8.80;85.72
77013;BME280;67260;53.130;17.982;2023-04-01T02:47:44;99149.54;;;8.77;85.77
77013;BME280;67260;53.130;17.982;2023-04-01T02:50:11;99152.98;;;8.73;85.88
77013;BME280;67260;53.130;17.982;2023-04-01T02:52:37;99155.99;;;8.68;86.08
77013;BME280;67260;53.130;17.982;2023-04-01T02:55:03;99159.78;;;8.64;86.44
77013;BME280;67260;53.130;17.982;2023-04-01T02:57:30;99159.98;;;8.59;86.35
77013;BME280;67260;53.130;17.982;2023-04-01T02:59:56;99166.07;;;8.56;86.48
77013;BME280;67260;53.130;17.982;2023-04-01T03:02:22;99166.69;;;8.56;86.38
77013;BME280;67260;53.130;17.982;2023-04-01T03:04:49;99165.02;;;8.56;86.18
77013;BME280;67260;53.130;17.982;2023-04-01T03:07:15;99165.58;;;8.56;86.46
77013;BME280;67260;53.130;17.982;2023-04-01T03:09:41;99166.80;;;8.56;86.35
77013;BME280;67260;53.130;17.982;2023-04-01T03:12:07;99170.33;;;8.55;86.22
77013;BME280;67260;53.130;17.982;2023-04-01T03:14:35;99171.87;;;8.52;86.58
77013;BME280;67260;53.130;17.982;2023-04-01T03:17:01;99174.95;;;8.51;86.56
77013;BME280;67260;53.130;17.982;2023-04-01T03:19:27;99170.98;;;8.49;86.54
77013;BME280;67260;53.130;17.982;2023-04-01T03:21:54;99176.77;;;8.47;86.30
77013;BME280;67260;53.130;17.982;2023-04-01T03:24:20;99173.77;;;8.45;86.59
77013;BME280;67260;53.130;17.982;2023-04-01T03:26:46;99175.24;;;8.43;86.77
77013;BME280;67260;53.130;17.982;2023-04-01T03:29:12;99178.48;;;8.42;86.37
77013;BME280;67260;53.130;17.982;2023-04-01T03:31:41;99179.29;;;8.41;86.66
77013;BME280;67260;53.130;17.982;2023-04-01T03:34:07;99180.02;;;8.41;86.46
77013;BME280;67260;53.130;17.982;2023-04-01T03:36:34;99185.42;;;8.41;86.58
77013;BME280;67260;53.130;17.982;2023-04-01T03:39:00;99181.59;;;8.40;86.44
77013;BME280;67260;53.130;17.982;2023-04-01T03:41:32;99185.48;;;8.37;86.55
77013;BME280;67260;53.130;17.982;2023-04-01T03:43:59;99185.77;;;8.33;86.42
77013;BME280;67260;53.130;17.982;2023-04-01T03:46:25;99187.26;;;8.31;86.73
77013;BME280;67260;53.130;17.982;2023-04-01T03:48:51;99193.45;;;8.29;86.52
77013;BME280;67260;53.130;17.982;2023-04-01T03:51:18;99192.77;;;8.25;86.57
77013;BME280;67260;53.130;17.982;2023-04-01T03:53:44;99197.80;;;8.24;86.67
77013;BME280;67260;53.130;17.982;2023-04-01T03:56:11;99203.03;;;8.20;86.70
77013;BME280;67260;53.130;17.982;2023-04-01T03:58:37;99203.66;;;8.16;86.58
77013;BME280;67260;53.130;17.982;2023-04-01T04:01:16;99207.09;;;8.11;86.71
77013;BME280;67260;53.130;17.982;2023-04-01T04:03:43;99210.42;;;8.05;86.56
77013;BME280;67260;53.130;17.982;2023-04-01T04:06:11;99208.42;;;8.01;86.32
77013;BME280;67260;53.130;17.982;2023-04-01T04:08:38;99212.90;;;7.98;86.49
77013;BME280;67260;53.130;17.982;2023-04-01T04:11:04;99215.65;;;7.96;86.74
77013;BME280;67260;53.130;17.982;2023-04-01T04:13:31;99218.27;;;7.93;87.06
77013;BME280;67260;53.130;17.982;2023-04-01T04:16:00;99222.13;;;7.93;86.89
77013;BME280;67260;53.130;17.982;2023-04-01T04:18:26;99224.96;;;7.96;86.90
77013;BME280;67260;53.130;17.982;2023-04-01T04:20:52;99228.23;;;7.98;87.05
77013;BME280;67260;53.130;17.982;2023-04-01T04:23:18;99231.80;;;7.97;86.94
77013;BME280;67260;53.130;17.982;2023-04-01T04:26:05;99229.76;;;7.91;86.77
77013;BME280;67260;53.130;17.982;2023-04-01T04:28:31;99233.36;;;7.87;86.87
77013;BME280;67260;53.130;17.982;2023-04-01T04:30:58;99234.63;;;7.83;86.85
77013;BME280;67260;53.130;17.982;2023-04-01T04:33:26;99239.27;;;7.83;86.75
77013;BME280;67260;53.130;17.982;2023-04-01T04:35:55;99241.75;;;7.80;86.56
77013;BME280;67260;53.130;17.982;2023-04-01T04:38:21;99245.08;;;7.72;86.60
77013;BME280;67260;53.130;17.982;2023-04-01T04:40:48;99250.65;;;7.65;86.68
77013;BME280;67260;53.130;17.982;2023-04-01T04:43:15;99250.38;;;7.61;87.15
77013;BME280;67260;53.130;17.982;2023-04-01T04:45:42;99248.77;;;7.57;86.76
77013;BME280;67260;53.130;17.982;2023-04-01T04:48:08;99254.95;;;7.54;86.75
77013;BME280;67260;53.130;17.982;2023-04-01T04:50:35;99252.48;;;7.53;86.95
77013;BME280;67260;53.130;17.982;2023-04-01T04:53:02;99256.52;;;7.50;86.95
77013;BME280;67260;53.130;17.982;2023-04-01T04:55:29;99260.45;;;7.49;86.95
77013;BME280;67260;53.130;17.982;2023-04-01T04:58:15;99262.59;;;7.47;87.05
77013;BME280;67260;53.130;17.982;2023-04-01T05:00:41;99266.00;;;7.43;87.16
77013;BME280;67260;53.130;17.982;2023-04-01T05:03:12;99270.05;;;7.39;86.96
77013;BME280;67260;53.130;17.982;2023-04-01T05:05:39;99275.48;;;7.35;86.76
77013;BME280;67260;53.130;17.982;2023-04-01T05:08:05;99276.84;;;7.31;86.98
77013;BME280;67260;53.130;17.982;2023-04-01T05:10:32;99280.31;;;7.28;86.82
77013;BME280;67260;53.130;17.982;2023-04-01T05:12:58;99280.27;;;7.24;86.72
77013;BME280;67260;53.130;17.982;2023-04-01T05:15:24;99285.91;;;7.22;86.91
77013;BME280;67260;53.130;17.982;2023-04-01T05:17:50;99287.60;;;7.20;87.12
77013;BME280;67260;53.130;17.982;2023-04-01T05:20:16;99291.84;;;7.18;86.97
77013;BME280;67260;53.130;17.982;2023-04-01T05:22:43;99297.20;;;7.19;87.27
77013;BME280;67260;53.130;17.982;2023-04-01T05:25:09;99296.77;;;7.18;87.20
77013;BME280;67260;53.130;17.982;2023-04-01T05:27:35;99297.95;;;7.17;87.65
77013;BME280;67260;53.130;17.982;2023-04-01T05:30:02;99300.23;;;7.17;87.37
77013;BME280;67260;53.130;17.982;2023-04-01T05:32:39;99304.96;;;7.14;87.05
77013;BME280;67260;53.130;17.982;2023-04-01T05:35:06;99306.81;;;7.08;86.90
77013;BME280;67260;53.130;17.982;2023-04-01T05:37:34;99304.14;;;7.04;86.86
77013;BME280;67260;53.130;17.982;2023-04-01T05:40:04;99303.98;;;7.03;86.97
77013;BME280;67260;53.130;17.982;2023-04-01T05:42:34;99306.33;;;7.00;86.80
77013;BME280;67260;53.130;17.982;2023-04-01T05:45:09;99310.51;;;7.00;86.83
77013;BME280;67260;53.130;17.982;2023-04-01T05:48:04;99309.48;;;7.01;86.48
77013;BME280;67260;53.130;17.982;2023-04-01T05:50:36;99315.27;;;6.99;85.85
77013;BME280;67260;53.130;17.982;2023-04-01T05:53:05;99317.59;;;6.99;85.95
77013;BME280;67260;53.130;17.982;2023-04-01T05:55:36;99322.23;;;7.00;85.95
77013;BME280;67260;53.130;17.982;2023-04-01T05:58:03;99327.20;;;7.00;85.79
77013;BME280;67260;53.130;17.982;2023-04-01T06:03:22;99332.02;;;6.99;85.58
77013;BME280;67260;53.130;17.982;2023-04-01T06:05:48;99334.73;;;6.99;85.22
77013;BME280;67260;53.130;17.982;2023-04-01T06:08:19;99337.34;;;7.01;85.32
77013;BME280;67260;53.130;17.982;2023-04-01T06:16:52;99346.27;;;7.12;85.30
77013;BME280;67260;53.130;17.982;2023-04-01T06:19:51;99345.71;;;7.15;85.42
77013;BME280;67260;53.130;17.982;2023-04-01T06:27:53;99353.35;;;7.31;84.88
77013;BME280;67260;53.130;17.982;2023-04-01T06:30:35;99352.32;;;7.28;84.34
77013;BME280;67260;53.130;17.982;2023-04-01T06:35:58;99357.02;;;7.26;84.42
77013;BME280;67260;53.130;17.982;2023-04-01T06:41:21;99364.77;;;7.33;84.56
77013;BME280;67260;53.130;17.982;2023-04-01T06:46:58;99373.08;;;7.47;84.34
77013;BME280;67260;53.130;17.982;2023-04-01T06:56:18;99373.63;;;7.48;83.46
77013;BME280;67260;53.130;17.982;2023-04-01T06:59:19;99380.02;;;7.43;83.60
77013;BME280;67260;53.130;17.982;2023-04-01T07:01:58;99378.92;;;7.40;83.83
77013;BME280;67260;53.130;17.982;2023-04-01T07:04:33;99384.49;;;7.39;83.61
77013;BME280;67260;53.130;17.982;2023-04-01T07:07:05;99389.77;;;7.40;83.43
77013;BME280;67260;53.130;17.982;2023-04-01T07:09:52;99390.11;;;7.43;83.31
77013;BME280;67260;53.130;17.982;2023-04-01T07:15:42;99400.41;;;7.45;83.17
77013;BME280;67260;53.130;17.982;2023-04-01T07:21:14;99408.65;;;7.51;83.17
77013;BME280;67260;53.130;17.982;2023-04-01T07:24:14;99411.44;;;7.56;82.53
77013;BME280;67260;53.130;17.982;2023-04-01T07:26:54;99409.89;;;7.56;81.96
77013;BME280;67260;53.130;17.982;2023-04-01T07:29:26;99413.66;;;7.53;81.83
77013;BME280;67260;53.130;17.982;2023-04-01T07:35:19;99412.31;;;7.54;82.22
77013;BME280;67260;53.130;17.982;2023-04-01T07:40:49;99411.39;;;7.69;82.28
77013;BME280;67260;53.130;17.982;2023-04-01T07:51:50;99435.75;;;7.76;82.26
77013;BME280;67260;53.130;17.982;2023-04-01T07:57:22;99449.85;;;7.61;81.73
77013;BME280;67260;53.130;17.982;2023-04-01T08:00:23;99447.97;;;7.54;81.80
77013;BME280;67260;53.130;17.982;2023-04-01T08:05:41;99458.38;;;7.54;82.22
77013;BME280;67260;53.130;17.982;2023-04-01T08:08:44;99463.91;;;7.54;82.37
77013;BME280;67260;53.130;17.982;2023-04-01T08:18:39;99478.78;;;7.36;81.45
77013;BME280;67260;53.130;17.982;2023-04-01T08:21:14;99484.43;;;7.36;81.66
77013;BME280;67260;53.130;17.982;2023-04-01T08:23:46;99492.14;;;7.32;82.10
77013;BME280;67260;53.130;17.982;2023-04-01T08:26:39;99496.66;;;7.35;82.31
77013;BME280;67260;53.130;17.982;2023-04-01T08:29:20;99492.29;;;7.44;82.00
77013;BME280;67260;53.130;17.982;2023-04-01T08:31:55;99494.12;;;7.53;81.63
77013;BME280;67260;53.130;17.982;2023-04-01T08:34:29;99492.61;;;7.63;81.15
77013;BME280;67260;53.130;17.982;2023-04-01T08:37:08;99496.61;;;7.74;80.77
77013;BME280;67260;53.130;17.982;2023-04-01T08:39:44;99495.60;;;7.86;80.90
77013;BME280;67260;53.130;17.982;2023-04-01T08:51:27;99502.92;;;8.55;79.77
77013;BME280;67260;53.130;17.982;2023-04-01T09:11:40;99526.02;;;8.73;78.52
77013;BME280;67260;53.130;17.982;2023-04-01T09:17:56;99529.99;;;8.84;78.15
77013;BME280;67260;53.130;17.982;2023-04-01T09:29:05;99538.58;;;8.85;76.48
77013;BME280;67260;53.130;17.982;2023-04-01T09:35:00;99546.25;;;8.75;77.82
77013;BME280;67260;53.130;17.982;2023-04-01T09:37:53;99548.73;;;8.75;78.02
77013;BME280;67260;53.130;17.982;2023-04-01T09:52:26;99568.84;;;8.63;76.90
77013;BME280;67260;53.130;17.982;2023-04-01T10:01:18;99577.31;;;8.76;76.31
77013;BME280;67260;53.130;17.982;2023-04-01T10:04:23;99583.98;;;8.81;76.06
77013;BME280;67260;53.130;17.982;2023-04-01T10:07:27;99586.50;;;8.84;75.03
77013;BME280;67260;53.130;17.982;2023-04-01T10:15:51;99588.23;;;9.19;74.86
77013;BME280;67260;53.130;17.982;2023-04-01T10:30:29;99595.15;;;9.06;75.34
77013;BME280;67260;53.130;17.982;2023-04-01T10:36:28;99606.10;;;8.94;75.41
77013;BME280;67260;53.130;17.982;2023-04-01T10:45:35;99607.05;;;9.27;74.50
77013;BME280;67260;53.130;17.982;2023-04-01T10:48:38;99605.29;;;9.51;73.58
77013;BME280;67260;53.130;17.982;2023-04-01T11:01:02;99611.91;;;9.53;73.62
77013;BME280;67260;53.130;17.982;2023-04-01T11:30:19;99646.94;;;9.64;73.30
77013;BME280;67260;53.130;17.982;2023-04-01T11:32:53;99651.65;;;9.60;73.57
77013;BME280;67260;53.130;17.982;2023-04-01T11:35:44;99655.07;;;9.59;73.44
77013;BME280;67260;53.130;17.982;2023-04-01T11:38:57;99665.38;;;9.53;73.44
77013;BME280;67260;53.130;17.982;2023-04-01T11:48:03;99678.10;;;9.15;73.13
77013;BME280;67260;53.130;17.982;2023-04-01T12:10:19;99697.38;;;9.16;72.52
77013;BME280;67260;53.130;17.982;2023-04-01T12:12:54;99698.75;;;9.16;72.68
77013;BME280;67260;53.130;17.982;2023-04-01T12:18:38;99706.10;;;9.37;72.64
77013;BME280;67260;53.130;17.982;2023-04-01T12:21:27;99701.90;;;9.55;72.02
77013;BME280;67260;53.130;17.982;2023-04-01T12:29:27;99721.19;;;9.64;71.78
77013;BME280;67260;53.130;17.982;2023-04-01T12:35:17;99729.52;;;9.51;71.62
77013;BME280;67260;53.130;17.982;2023-04-01T12:38:38;99733.42;;;9.46;71.28
77013;BME280;67260;53.130;17.982;2023-04-01T12:46:03;99738.12;;;9.65;71.17
77013;BME280;67260;53.130;17.982;2023-04-01T12:49:01;99735.98;;;9.80;70.87
77013;BME280;67260;53.130;17.982;2023-04-01T12:57:48;99746.86;;;10.13;69.40
77013;BME280;67260;53.130;17.982;2023-04-01T13:00:44;99748.55;;;10.09;68.94
77013;BME280;67260;53.130;17.982;2023-04-01T13:03:24;99756.84;;;10.03;68.69
77013;BME280;67260;53.130;17.982;2023-04-01T13:12:20;99766.62;;;9.99;68.65
77013;BME280;67260;53.130;17.982;2023-04-01T13:15:19;99770.73;;;9.96;68.67
77013;BME280;67260;53.130;17.982;2023-04-01T13:23:41;99786.12;;;9.78;68.21
77013;BME280;67260;53.130;17.982;2023-04-01T13:29:14;99785.13;;;9.60;67.93
77013;BME280;67260;53.130;17.982;2023-04-01T13:32:05;99786.80;;;9.53;68.37
77013;BME280;67260;53.130;17.982;2023-04-01T13:37:22;99790.54;;;9.48;68.43
77013;BME280;67260;53.130;17.982;2023-04-01T13:51:48;99812.91;;;9.18;68.93
77013;BME280;67260;53.130;17.982;2023-04-01T14:00:22;99824.75;;;9.04;68.97
77013;BME280;67260;53.130;17.982;2023-04-01T14:17:30;99841.21;;;8.76;69.90
77013;BME280;67260;53.130;17.982;2023-04-01T14:26:04;99849.96;;;8.62;70.11
77013;BME280;67260;53.130;17.982;2023-04-01T14:32:03;99852.42;;;8.53;69.92
77013;BME280;67260;53.130;17.982;2023-04-01T14:38:04;99864.86;;;8.51;70.21
77013;BME280;67260;53.130;17.982;2023-04-01T14:40:55;99866.90;;;8.50;70.25
77013;BME280;67260;53.130;17.982;2023-04-01T14:43:41;99872.06;;;8.44;70.32
77013;BME280;67260;53.130;17.982;2023-04-01T14:46:50;99875.64;;;8.35;70.04
77013;BME280;67260;53.130;17.982;2023-04-01T14:49:32;99879.02;;;8.24;70.69
77013;BME280;67260;53.130;17.982;2023-04-01T14:52:30;99884.05;;;8.12;70.22
77013;BME280;67260;53.130;17.982;2023-04-01T14:55:01;99889.42;;;8.00;70.56
77013;BME280;67260;53.130;17.982;2023-04-01T14:57:30;99892.02;;;7.93;70.77
77013;BME280;67260;53.130;17.982;2023-04-01T15:08:18;99910.38;;;7.68;70.72
77013;BME280;67260;53.130;17.982;2023-04-01T15:17:54;99925.54;;;7.46;70.80
77013;BME280;67260;53.130;17.982;2023-04-01T15:23:34;99938.04;;;7.30;71.37
77013;BME280;67260;53.130;17.982;2023-04-01T15:35:00;99957.51;;;7.20;71.73
77013;BME280;67260;53.130;17.982;2023-04-01T15:40:27;99963.67;;;7.12;72.01
77013;BME280;67260;53.130;17.982;2023-04-01T15:43:36;99969.80;;;7.06;71.60
77013;BME280;67260;53.130;17.982;2023-04-01T15:49:31;99974.22;;;6.94;71.81
77013;BME280;67260;53.130;17.982;2023-04-01T16:00:49;99992.81;;;6.59;72.03
77013;BME280;67260;53.130;17.982;2023-04-01T16:03:35;99989.85;;;6.47;72.29
77013;BME280;67260;53.130;17.982;2023-04-01T16:09:12;100013.96;;;6.36;73.03
77013;BME280;67260;53.130;17.982;2023-04-01T16:17:54;100025.38;;;6.16;73.37
77013;BME280;67260;53.130;17.982;2023-04-01T16:20:41;100032.16;;;6.12;73.50
77013;BME280;67260;53.130;17.982;2023-04-01T16:23:16;100037.36;;;6.12;73.58
77013;BME280;67260;53.130;17.982;2023-04-01T16:26:06;100043.19;;;6.09;73.13
77013;BME280;67260;53.130;17.982;2023-04-01T16:28:42;100052.04;;;6.04;73.09
77013;BME280;67260;53.130;17.982;2023-04-01T16:31:29;100051.08;;;5.95;73.05
77013;BME280;67260;53.130;17.982;2023-04-01T16:34:08;100051.40;;;5.85;73.47
77013;BME280;67260;53.130;17.982;2023-04-01T16:36:51;100062.61;;;5.82;73.52
77013;BME280;67260;53.130;17.982;2023-04-01T16:42:53;100071.73;;;5.72;73.68
77013;BME280;67260;53.130;17.982;2023-04-01T16:45:37;100079.86;;;5.65;73.90
77013;BME280;67260;53.130;17.982;2023-04-01T16:55:33;100094.15;;;5.44;74.77
77013;BME280;67260;53.130;17.982;2023-04-01T17:21:16;100130.88;;;5.22;73.70
77013;BME280;67260;53.130;17.982;2023-04-01T17:47:49;100176.83;;;4.85;74.25
77013;BME280;67260;53.130;17.982;2023-04-01T17:55:15;100188.21;;;4.65;75.14
77013;BME280;67260;53.130;17.982;2023-04-01T18:09:17;100210.70;;;4.42;76.12
77013;BME280;67260;53.130;17.982;2023-04-01T18:11:50;100216.47;;;4.36;76.35
77013;BME280;67260;53.130;17.982;2023-04-01T18:17:44;100228.53;;;4.29;76.78
77013;BME280;67260;53.130;17.982;2023-04-01T18:20:33;100227.95;;;4.23;77.02
77013;BME280;67260;53.130;17.982;2023-04-01T18:25:54;100244.71;;;4.15;77.40
77013;BME280;67260;53.130;17.982;2023-04-01T18:28:38;100245.20;;;4.12;77.86
77013;BME280;67260;53.130;17.982;2023-04-01T18:31:36;100251.79;;;4.10;77.99
77013;BME280;67260;53.130;17.982;2023-04-01T18:37:16;100254.77;;;4.05;78.60
77013;BME280;67260;53.130;17.982;2023-04-01T18:45:57;100260.50;;;4.00;78.61
77013;BME280;67260;53.130;17.982;2023-04-01T18:48:49;100269.05;;;3.98;78.66
77013;BME280;67260;53.130;17.982;2023-04-01T18:54:33;100278.60;;;3.99;79.10
77013;BME280;67260;53.130;17.982;2023-04-01T18:57:13;100283.50;;;3.99;79.15
77013;BME280;67260;53.130;17.982;2023-04-01T19:02:33;100295.40;;;3.93;79.63
77013;BME280;67260;53.130;17.982;2023-04-01T19:08:16;100300.28;;;3.89;79.71
77013;BME280;67260;53.130;17.982;2023-04-01T19:22:03;100317.70;;;3.82;79.75
77013;BME280;67260;53.130;17.982;2023-04-01T19:28:47;100330.81;;;3.85;80.12
77013;BME280;67260;53.130;17.982;2023-04-01T19:30:54;100337.55;;;3.89;79.91
77013;BME280;67260;53.130;17.982;2023-04-01T19:36:31;100345.09;;;3.95;80.08
77013;BME280;67260;53.130;17.982;2023-04-01T19:56:20;100370.98;;;3.65;80.37
77013;BME280;67260;53.130;17.982;2023-04-01T19:59:09;100371.70;;;3.63;80.54
77013;BME280;67260;53.130;17.982;2023-04-01T20:04:58;100377.02;;;3.65;80.59
77013;BME280;67260;53.130;17.982;2023-04-01T20:10:58;100383.61;;;3.64;80.87
77013;BME280;67260;53.130;17.982;2023-04-01T20:16:47;100393.98;;;3.69;80.75
77013;BME280;67260;53.130;17.982;2023-04-01T20:22:00;100402.05;;;3.76;80.94
77013;BME280;67260;53.130;17.982;2023-04-01T20:24:37;100406.83;;;3.74;80.86
77013;BME280;67260;53.130;17.982;2023-04-01T20:27:18;100407.83;;;3.68;81.01
77013;BME280;67260;53.130;17.982;2023-04-01T20:38:48;100419.14;;;3.53;80.94
77013;BME280;67260;53.130;17.982;2023-04-01T20:41:28;100414.75;;;3.48;81.09
77013;BME280;67260;53.130;17.982;2023-04-01T20:44:14;100418.67;;;3.53;81.27
77013;BME280;67260;53.130;17.982;2023-04-01T20:46:51;100418.41;;;3.55;81.13
77013;BME280;67260;53.130;17.982;2023-04-01T20:49:51;100424.13;;;3.54;80.98
77013;BME280;67260;53.130;17.982;2023-04-01T20:52:32;100428.13;;;3.56;81.12
77013;BME280;67260;53.130;17.982;2023-04-01T20:55:47;100425.08;;;3.53;81.00
77013;BME280;67260;53.130;17.982;2023-04-01T21:01:40;100429.88;;;3.51;80.47
77013;BME280;67260;53.130;17.982;2023-04-01T21:04:22;100433.61;;;3.54;80.37
77013;BME280;67260;53.130;17.982;2023-04-01T21:26:23;100456.94;;;3.63;79.98
77013;BME280;67260;53.130;17.982;2023-04-01T21:29:18;100461.23;;;3.62;80.07
77013;BME280;67260;53.130;17.982;2023-04-01T21:31:51;100466.69;;;3.60;80.06
77013;BME280;67260;53.130;17.982;2023-04-01T21:43:15;100471.27;;;3.55;80.03
77013;BME280;67260;53.130;17.982;2023-04-01T21:49:04;100474.39;;;3.44;80.10
77013;BME280;67260;53.130;17.982;2023-04-01T21:52:05;100480.86;;;3.43;80.34
77013;BME280;67260;53.130;17.982;2023-04-01T22:00:24;100486.05;;;3.45;80.01
77013;BME280;67260;53.130;17.982;2023-04-01T22:06:26;100493.55;;;3.56;79.89
77013;BME280;67260;53.130;17.982;2023-04-01T22:09:05;100491.19;;;3.54;79.75
77013;BME280;67260;53.130;17.982;2023-04-01T22:11:48;100492.44;;;3.54;80.02
77013;BME280;67260;53.130;17.982;2023-04-01T22:14:34;100494.61;;;3.53;80.01
77013;BME280;67260;53.130;17.982;2023-04-01T22:22:59;100497.46;;;3.57;79.65
77013;BME280;67260;53.130;17.982;2023-04-01T22:25:38;100504.42;;;3.50;79.52
77013;BME280;67260;53.130;17.982;2023-04-01T22:28:09;100507.29;;;3.44;79.67
77013;BME280;67260;53.130;17.982;2023-04-01T22:30:42;100510.77;;;3.44;80.01
77013;BME280;67260;53.130;17.982;2023-04-01T22:33:19;100513.35;;;3.48;80.12
77013;BME280;67260;53.130;17.982;2023-04-01T22:39:02;100518.44;;;3.48;79.95
77013;BME280;67260;53.130;17.982;2023-04-01T22:46:56;100526.45;;;3.44;80.25
77013;BME280;67260;53.130;17.982;2023-04-01T22:49:30;100530.02;;;3.45;80.26
77013;BME280;67260;53.130;17.982;2023-04-01T22:54:52;100533.94;;;3.44;80.19
77013;BME280;67260;53.130;17.982;2023-04-01T23:00:24;100535.87;;;3.49;80.19
77013;BME280;67260;53.130;17.982;2023-04-01T23:03:06;100541.11;;;3.52;79.96
77013;BME280;67260;53.130;17.982;2023-04-01T23:05:43;100542.14;;;3.51;79.88
77013;BME280;67260;53.130;17.982;2023-04-01T23:11:08;100550.08;;;3.55;79.82
77013;BME280;67260;53.130;17.982;2023-04-01T23:13:41;100548.17;;;3.58;79.94
77013;BME280;67260;53.130;17.982;2023-04-01T23:16:10;100549.13;;;3.60;80.06
77013;BME280;67260;53.130;17.982;2023-04-01T23:18:47;100553.42;;;3.63;79.91
77013;BME280;67260;53.130;17.982;2023-04-01T23:21:29;100558.02;;;3.64;79.88
77013;BME280;67260;53.130;17.982;2023-04-01T23:26:56;100559.41;;;3.61;79.51
77013;BME280;67260;53.130;17.982;2023-04-01T23:29:25;100565.12;;;3.62;79.46
77013;BME280;67260;53.130;17.982;2023-04-01T23:32:04;100568.20;;;3.57;79.20
77013;BME280;67260;53.130;17.982;2023-04-01T23:34:32;100571.02;;;3.52;79.31